sensor_id;sensor_type;location;lat;lon;timestamp;pressure;altitude;pressure_sealevel;temperature;humidity
77235;BME280;66253;50.526;14.974;2023-11-19T00:00:21;99456.20;;;2.92;89.84
77235;BME280;66253;50.526;14.974;2023-11-19T00:02:49;99455.34;;;2.93;89.66
77235;BME280;66253;50.526;14.974;2023-11-19T00:05:17;99454.48;;;2.94;89.67
77235;BME280;66253;50.526;14.974;2023-11-19T00:07:46;99445.20;;;2.94;89.52
77235;BME280;66253;50.526;14.974;2023-11-19T00:10:15;99437.44;;;2.95;89.46
77235;BME280;66253;50.526;14.974;2023-11-19T00:12:44;99436.73;;;2.96;89.39
77235;BME280;66253;50.526;14.974;2023-11-19T00:15:13;99434.02;;;2.96;89.55
77235;BME280;66253;50.526;14.974;2023-11-19T00:17:42;99429.11;;;2.97;89.44
77235;BME280;66253;50.526;14.974;2023-11-19T00:20:11;99412.74;;;2.97;89.51
77235;BME280;66253;50.526;14.974;2023-11-19T00:22:39;99399.73;;;2.97;89.48
77235;BME280;66253;50.526;14.974;2023-11-19T00:25:09;99390.79;;;2.98;89.18
77235;BME280;66253;50.526;14.974;2023-11-19T00:27:37;99388.77;;;2.98;89.31
77235;BME280;66253;50.526;14.974;2023-11-19T00:30:08;99392.44;;;3.00;89.43
77235;BME280;66253;50.526;14.974;2023-11-19T00:32:36;99382.13;;;3.00;89.29
77235;BME280;66253;50.526;14.974;2023-11-19T00:35:05;99365.83;;;2.97;89.37
77235;BME280;66253;50.526;14.974;2023-11-19T00:37:33;99360.61;;;2.98;88.46
77235;BME280;66253;50.526;14.974;2023-11-19T00:40:02;99356.85;;;2.99;88.64
77235;BME280;66253;50.526;14.974;2023-11-19T00:42:31;99355.63;;;3.01;88.24
77235;BME280;66253;50.526;14.974;2023-11-19T00:44:59;99349.55;;;3.01;87.81
77235;BME280;66253;50.526;14.974;2023-11-19T00:47:27;99337.70;;;3.03;88.13
77235;BME280;66253;50.526;14.974;2023-11-19T00:49:56;99329.92;;;3.03;87.69
77235;BME280;66253;50.526;14.974;2023-11-19T00:52:24;99337.34;;;3.04;87.43
77235;BME280;66253;50.526;14.974;2023-11-19T00:54:52;99344.75;;;3.05;87.22
77235;BME280;66253;50.526;14.974;2023-11-19T00:57:20;99328.55;;;3.04;87.08
77235;BME280;66253;50.526;14.974;2023-11-19T00:59:49;99317.58;;;3.04;87.53
77235;BME280;66253;50.526;14.974;2023-11-19T01:02:17;99318.89;;;3.06;86.89
77235;BME280;66253;50.526;14.974;2023-11-19T01:04:45;99315.52;;;3.06;87.08
77235;BME280;66253;50.526;14.974;2023-11-19T01:07:14;99315.15;;;3.07;86.92
77235;BME280;66253;50.526;14.974;2023-11-19T01:09:42;99316.16;;;3.07;87.08
77235;BME280;66253;50.526;14.974;2023-11-19T01:12:11;99311.81;;;3.06;86.86
77235;BME280;66253;50.526;14.974;2023-11-19T01:14:39;99308.45;;;3.05;86.77
77235;BME280;66253;50.526;14.974;2023-11-19T01:17:07;99304.38;;;3.06;87.00
77235;BME280;66253;50.526;14.974;2023-11-19T01:19:35;99294.23;;;3.07;86.79
77235;BME280;66253;50.526;14.974;2023-11-19T01:22:04;99289.34;;;3.07;86.90
77235;BME280;66253;50.526;14.974;2023-11-19T01:24:32;99284.08;;;3.08;86.81
77235;BME280;66253;50.526;14.974;2023-11-19T01:27:00;99283.27;;;3.07;86.82
77235;BME280;66253;50.526;14.974;2023-11-19T01:29:29;99276.23;;;3.05;86.74
77235;BME280;66253;50.526;14.974;2023-11-19T01:31:57;99266.00;;;3.03;86.69
77235;BME280;66253;50.526;14.974;2023-11-19T01:34:25;99260.48;;;3.00;86.61
77235;BME280;66253;50.526;14.974;2023-11-19T01:36:53;99260.63;;;3.01;86.83
77235;BME280;66253;50.526;14.974;2023-11-19T01:39:21;99255.06;;;3.02;86.70
77235;BME280;66253;50.526;14.974;2023-11-19T01:41:50;99240.36;;;3.01;87.02
77235;BME280;66253;50.526;14.974;2023-11-19T01:44:18;99245.45;;;3.01;86.75
77235;BME280;66253;50.526;14.974;2023-11-19T01:46:47;99248.90;;;2.98;86.69
77235;BME280;66253;50.526;14.974;2023-11-19T01:49:16;99236.77;;;2.97;87.20
77235;BME280;66253;50.526;14.974;2023-11-19T01:51:45;99230.19;;;2.97;87.19
77235;BME280;66253;50.526;14.974;2023-11-19T01:54:14;99224.34;;;2.96;87.24
77235;BME280;66253;50.526;14.974;2023-11-19T01:56:44;99221.98;;;2.95;87.27
77235;BME280;66253;50.526;14.974;2023-11-19T01:59:13;99218.16;;;2.92;87.24
77235;BME280;66253;50.526;14.974;2023-11-19T02:01:47;99210.44;;;2.91;87.37
77235;BME280;66253;50.526;14.974;2023-11-19T02:04:16;99205.11;;;2.88;87.46
77235;BME280;66253;50.526;14.974;2023-11-19T02:06:48;99204.14;;;2.86;87.71
77235;BME280;66253;50.526;14.974;2023-11-19T02:09:18;99204.80;;;2.87;87.62
77235;BME280;66253;50.526;14.974;2023-11-19T02:11:48;99196.16;;;2.89;87.86
77235;BME280;66253;50.526;14.974;2023-11-19T02:14:17;99197.34;;;2.89;87.93
77235;BME280;66253;50.526;14.974;2023-11-19T02:16:45;99200.34;;;2.90;87.91
77235;BME280;66253;50.526;14.974;2023-11-19T02:19:14;99197.92;;;2.92;87.90
77235;BME280;66253;50.526;14.974;2023-11-19T02:21:46;99190.66;;;2.93;87.90
77235;BME280;66253;50.526;14.974;2023-11-19T02:24:16;99185.81;;;2.90;87.45
77235;BME280;66253;50.526;14.974;2023-11-19T02:26:54;99182.45;;;2.90;87.57
77235;BME280;66253;50.526;14.974;2023-11-19T02:29:34;99183.02;;;2.88;87.73
77235;BME280;66253;50.526;14.974;2023-11-19T02:32:03;99179.14;;;2.88;87.83
77235;BME280;66253;50.526;14.974;2023-11-19T02:34:35;99170.02;;;2.89;87.89
77235;BME280;66253;50.526;14.974;2023-11-19T02:37:03;99167.45;;;2.90;87.88
77235;BME280;66253;50.526;14.974;2023-11-19T02:39:32;99163.05;;;2.90;87.91
77235;BME280;66253;50.526;14.974;2023-11-19T02:42:00;99151.43;;;2.90;87.97
77235;BME280;66253;50.526;14.974;2023-11-19T02:44:31;99140.13;;;2.90;88.00
77235;BME280;66253;50.526;14.974;2023-11-19T02:47:02;99140.52;;;2.88;88.19
77235;BME280;66253;50.526;14.974;2023-11-19T02:49:31;99135.69;;;2.85;88.12
77235;BME280;66253;50.526;14.974;2023-11-19T02:52:02;99138.39;;;2.85;88.39
77235;BME280;66253;50.526;14.974;2023-11-19T02:54:31;99132.16;;;2.85;88.27
77235;BME280;66253;50.526;14.974;2023-11-19T02:57:00;99132.17;;;2.84;88.63
77235;BME280;66253;50.526;14.974;2023-11-19T02:59:29;99124.23;;;2.84;88.95
77235;BME280;66253;50.526;14.974;2023-11-19T03:01:58;99118.88;;;2.83;88.80
77235;BME280;66253;50.526;14.974;2023-11-19T03:04:27;99113.02;;;2.82;88.69
77235;BME280;66253;50.526;14.974;2023-11-19T03:06:55;99105.95;;;2.80;88.78
77235;BME280;66253;50.526;14.974;2023-11-19T03:09:24;99103.65;;;2.78;89.05
77235;BME280;66253;50.526;14.974;2023-11-19T03:11:58;99092.59;;;2.76;89.05
77235;BME280;66253;50.526;14.974;2023-11-19T03:14:27;99094.42;;;2.76;89.17
77235;BME280;66253;50.526;14.974;2023-11-19T03:16:56;99105.43;;;2.75;89.48
77235;BME280;66253;50.526;14.974;2023-11-19T03:19:25;99108.85;;;2.73;89.48
77235;BME280;66253;50.526;14.974;2023-11-19T03:21:53;99101.78;;;2.72;89.44
77235;BME280;66253;50.526;14.974;2023-11-19T03:24:22;99091.65;;;2.73;89.74
77235;BME280;66253;50.526;14.974;2023-11-19T03:26:51;99088.27;;;2.73;90.20
77235;BME280;66253;50.526;14.974;2023-11-19T03:29:19;99082.70;;;2.74;90.07
77235;BME280;66253;50.526;14.974;2023-11-19T03:31:48;99077.10;;;2.75;90.16
77235;BME280;66253;50.526;14.974;2023-11-19T03:34:16;99066.62;;;2.76;90.03
77235;BME280;66253;50.526;14.974;2023-11-19T03:36:46;99061.90;;;2.76;90.28
77235;BME280;66253;50.526;14.974;2023-11-19T03:39:15;99052.95;;;2.76;90.20
77235;BME280;66253;50.526;14.974;2023-11-19T03:41:46;99036.61;;;2.76;89.97
77235;BME280;66253;50.526;14.974;2023-11-19T03:44:15;99035.27;;;2.74;89.71
77235;BME280;66253;50.526;14.974;2023-11-19T03:46:43;99032.50;;;2.71;89.79
77235;BME280;66253;50.526;14.974;2023-11-19T03:49:13;99030.16;;;2.71;89.87
77235;BME280;66253;50.526;14.974;2023-11-19T03:51:41;99034.65;;;2.73;90.05
77235;BME280;66253;50.526;14.974;2023-11-19T03:54:09;99030.21;;;2.75;90.17
77235;BME280;66253;50.526;14.974;2023-11-19T03:56:37;99027.00;;;2.75;90.02
77235;BME280;66253;50.526;14.974;2023-11-19T03:59:06;99025.02;;;2.74;90.16
77235;BME280;66253;50.526;14.974;2023-11-19T04:01:34;99017.58;;;2.74;90.00
77235;BME280;66253;50.526;14.974;2023-11-19T04:04:02;99021.17;;;2.73;90.08
77235;BME280;66253;50.526;14.974;2023-11-19T04:06:30;99017.67;;;2.70;90.23
77235;BME280;66253;50.526;14.974;2023-11-19T04:08:59;99010.64;;;2.69;90.90
77235;BME280;66253;50.526;14.974;2023-11-19T04:11:27;99003.02;;;2.71;90.77
77235;BME280;66253;50.526;14.974;2023-11-19T04:13:55;98997.42;;;2.71;90.79
77235;BME280;66253;50.526;14.974;2023-11-19T04:16:28;98987.83;;;2.71;90.63
77235;BME280;66253;50.526;14.974;2023-11-19T04:18:56;98976.16;;;2.71;90.56
77235;BME280;66253;50.526;14.974;2023-11-19T04:21:24;98969.27;;;2.71;90.49
77235;BME280;66253;50.526;14.974;2023-11-19T04:23:53;98963.57;;;2.70;90.87
77235;BME280;66253;50.526;14.974;2023-11-19T04:26:21;98953.03;;;2.67;91.00
77235;BME280;66253;50.526;14.974;2023-11-19T04:28:49;98949.20;;;2.65;91.15
77235;BME280;66253;50.526;14.974;2023-11-19T04:31:18;98947.38;;;2.64;91.47
77235;BME280;66253;50.526;14.974;2023-11-19T04:33:46;98950.25;;;2.64;91.64
77235;BME280;66253;50.526;14.974;2023-11-19T04:36:18;98938.52;;;2.62;91.79
77235;BME280;66253;50.526;14.974;2023-11-19T04:38:46;98923.91;;;2.59;92.38
77235;BME280;66253;50.526;14.974;2023-11-19T04:41:14;98920.39;;;2.58;92.55
77235;BME280;66253;50.526;14.974;2023-11-19T04:43:42;98924.44;;;2.58;92.61
77235;BME280;66253;50.526;14.974;2023-11-19T04:46:12;98928.83;;;2.57;92.50
77235;BME280;66253;50.526;14.974;2023-11-19T04:48:40;98928.05;;;2.56;92.54
77235;BME280;66253;50.526;14.974;2023-11-19T04:51:08;98933.90;;;2.57;92.69
77235;BME280;66253;50.526;14.974;2023-11-19T04:53:37;98930.98;;;2.59;92.92
77235;BME280;66253;50.526;14.974;2023-11-19T04:56:10;98928.08;;;2.60;92.83
77235;BME280;66253;50.526;14.974;2023-11-19T04:58:39;98923.65;;;2.63;92.87
77235;BME280;66253;50.526;14.974;2023-11-19T05:01:12;98908.95;;;2.64;92.82
77235;BME280;66253;50.526;14.974;2023-11-19T05:03:41;98898.27;;;2.66;92.69
77235;BME280;66253;50.526;14.974;2023-11-19T05:06:10;98905.52;;;2.66;92.52
77235;BME280;66253;50.526;14.974;2023-11-19T05:08:38;98901.42;;;2.67;92.62
77235;BME280;66253;50.526;14.974;2023-11-19T05:11:07;98895.15;;;2.68;92.80
77235;BME280;66253;50.526;14.974;2023-11-19T05:13:35;98901.21;;;2.69;92.56
77235;BME280;66253;50.526;14.974;2023-11-19T05:16:03;98905.58;;;2.70;92.80
77235;BME280;66253;50.526;14.974;2023-11-19T05:18:32;98895.46;;;2.69;92.61
77235;BME280;66253;50.526;14.974;2023-11-19T05:21:00;98890.36;;;2.71;92.42
77235;BME280;66253;50.526;14.974;2023-11-19T05:23:28;98897.05;;;2.73;92.66
77235;BME280;66253;50.526;14.974;2023-11-19T05:25:57;98893.95;;;2.75;92.92
77235;BME280;66253;50.526;14.974;2023-11-19T05:28:25;98880.90;;;2.77;92.71
77235;BME280;66253;50.526;14.974;2023-11-19T05:30:54;98870.55;;;2.79;92.48
77235;BME280;66253;50.526;14.974;2023-11-19T05:33:22;98856.66;;;2.81;92.49
77235;BME280;66253;50.526;14.974;2023-11-19T05:35:51;98853.63;;;2.81;92.61
77235;BME280;66253;50.526;14.974;2023-11-19T05:38:19;98851.57;;;2.82;92.63
77235;BME280;66253;50.526;14.974;2023-11-19T05:40:48;98849.81;;;2.84;92.44
77235;BME280;66253;50.526;14.974;2023-11-19T05:43:16;98832.90;;;2.86;92.54
77235;BME280;66253;50.526;14.974;2023-11-19T05:45:44;98822.86;;;2.89;92.61
77235;BME280;66253;50.526;14.974;2023-11-19T05:48:13;98822.45;;;2.91;92.56
77235;BME280;66253;50.526;14.974;2023-11-19T05:50:41;98816.20;;;2.91;92.47
77235;BME280;66253;50.526;14.974;2023-11-19T05:53:09;98816.52;;;2.92;92.68
77235;BME280;66253;50.526;14.974;2023-11-19T05:55:37;98814.45;;;2.93;92.57
77235;BME280;66253;50.526;14.974;2023-11-19T05:58:06;98815.83;;;2.93;92.58
77235;BME280;66253;50.526;14.974;2023-11-19T06:00:34;98817.66;;;2.93;92.69
77235;BME280;66253;50.526;14.974;2023-11-19T06:03:02;98817.53;;;2.92;92.61
77235;BME280;66253;50.526;14.974;2023-11-19T06:05:30;98815.52;;;2.91;92.36
77235;BME280;66253;50.526;14.974;2023-11-19T06:07:59;98807.76;;;2.91;92.20
77235;BME280;66253;50.526;14.974;2023-11-19T06:10:27;98810.34;;;2.90;92.53
77235;BME280;66253;50.526;14.974;2023-11-19T06:12:55;98814.27;;;2.89;92.84
77235;BME280;66253;50.526;14.974;2023-11-19T06:15:23;98806.35;;;2.89;92.85
77235;BME280;66253;50.526;14.974;2023-11-19T06:17:52;98800.46;;;2.88;92.88
77235;BME280;66253;50.526;14.974;2023-11-19T06:20:20;98806.91;;;2.87;92.94
77235;BME280;66253;50.526;14.974;2023-11-19T06:22:48;98806.26;;;2.86;93.01
77235;BME280;66253;50.526;14.974;2023-11-19T06:25:16;98801.16;;;2.87;93.12
77235;BME280;66253;50.526;14.974;2023-11-19T06:27:45;98798.60;;;2.88;93.04
77235;BME280;66253;50.526;14.974;2023-11-19T06:30:14;98801.97;;;2.88;93.12
77235;BME280;66253;50.526;14.974;2023-11-19T06:32:42;98803.11;;;2.89;93.16
77235;BME280;66253;50.526;14.974;2023-11-19T06:35:10;98806.30;;;2.90;92.89
77235;BME280;66253;50.526;14.974;2023-11-19T06:37:40;98797.88;;;2.89;92.78
77235;BME280;66253;50.526;14.974;2023-11-19T06:40:10;98792.42;;;2.91;93.06
77235;BME280;66253;50.526;14.974;2023-11-19T06:42:38;98788.48;;;2.93;93.66
77235;BME280;66253;50.526;14.974;2023-11-19T06:45:08;98780.72;;;2.93;93.15
77235;BME280;66253;50.526;14.974;2023-11-19T06:47:36;98787.16;;;2.92;93.15
77235;BME280;66253;50.526;14.974;2023-11-19T06:50:06;98788.02;;;2.92;93.32
77235;BME280;66253;50.526;14.974;2023-11-19T06:52:34;98797.48;;;2.91;93.15
77235;BME280;66253;50.526;14.974;2023-11-19T06:55:02;98796.31;;;2.91;93.33
77235;BME280;66253;50.526;14.974;2023-11-19T06:57:31;98781.74;;;2.92;93.35
77235;BME280;66253;50.526;14.974;2023-11-19T07:00:00;98766.01;;;2.94;93.69
77235;BME280;66253;50.526;14.974;2023-11-19T07:02:28;98759.66;;;2.98;93.53
77235;BME280;66253;50.526;14.974;2023-11-19T07:04:56;98767.88;;;2.99;94.42
77235;BME280;66253;50.526;14.974;2023-11-19T07:07:24;98780.36;;;2.99;94.06
77235;BME280;66253;50.526;14.974;2023-11-19T07:09:53;98781.91;;;2.98;94.15
77235;BME280;66253;50.526;14.974;2023-11-19T07:12:22;98773.52;;;2.97;93.97
77235;BME280;66253;50.526;14.974;2023-11-19T07:14:50;98761.58;;;2.96;93.86
77235;BME280;66253;50.526;14.974;2023-11-19T07:17:20;98758.89;;;2.96;93.89
77235;BME280;66253;50.526;14.974;2023-11-19T07:19:49;98762.46;;;2.94;93.96
77235;BME280;66253;50.526;14.974;2023-11-19T07:22:17;98763.56;;;2.92;94.00
77235;BME280;66253;50.526;14.974;2023-11-19T07:24:45;98762.87;;;2.92;93.80
77235;BME280;66253;50.526;14.974;2023-11-19T07:27:13;98766.56;;;2.93;93.95
77235;BME280;66253;50.526;14.974;2023-11-19T07:29:42;98769.38;;;2.94;93.82
77235;BME280;66253;50.526;14.974;2023-11-19T07:32:11;98768.14;;;2.96;94.07
77235;BME280;66253;50.526;14.974;2023-11-19T07:34:39;98771.95;;;2.98;94.02
77235;BME280;66253;50.526;14.974;2023-11-19T07:37:07;98774.58;;;3.00;94.15
77235;BME280;66253;50.526;14.974;2023-11-19T07:39:36;98773.86;;;3.02;93.72
77235;BME280;66253;50.526;14.974;2023-11-19T07:42:04;98769.92;;;3.03;93.92
77235;BME280;66253;50.526;14.974;2023-11-19T07:44:33;98764.98;;;3.06;93.75
77235;BME280;66253;50.526;14.974;2023-11-19T07:47:01;98757.55;;;3.05;93.44
77235;BME280;66253;50.526;14.974;2023-11-19T07:49:29;98755.55;;;3.04;93.53
77235;BME280;66253;50.526;14.974;2023-11-19T07:51:58;98758.80;;;3.03;93.43
77235;BME280;66253;50.526;14.974;2023-11-19T07:54:26;98766.75;;;3.03;93.53
77235;BME280;66253;50.526;14.974;2023-11-19T07:56:54;98759.92;;;3.04;93.45
77235;BME280;66253;50.526;14.974;2023-11-19T07:59:23;98751.90;;;3.08;93.76
77235;BME280;66253;50.526;14.974;2023-11-19T08:01:51;98746.52;;;3.13;93.74
77235;BME280;66253;50.526;14.974;2023-11-19T08:04:19;98731.25;;;3.15;93.48
77235;BME280;66253;50.526;14.974;2023-11-19T08:06:47;98725.95;;;3.17;93.42
77235;BME280;66253;50.526;14.974;2023-11-19T08:09:16;98721.98;;;3.15;93.61
77235;BME280;66253;50.526;14.974;2023-11-19T08:11:44;98723.20;;;3.13;93.59
77235;BME280;66253;50.526;14.974;2023-11-19T08:14:12;98715.34;;;3.12;93.66
77235;BME280;66253;50.526;14.974;2023-11-19T08:16:41;98722.77;;;3.12;93.89
77235;BME280;66253;50.526;14.974;2023-11-19T08:19:09;98731.83;;;3.13;93.85
77235;BME280;66253;50.526;14.974;2023-11-19T08:21:38;98733.17;;;3.13;94.03
77235;BME280;66253;50.526;14.974;2023-11-19T08:24:07;98726.88;;;3.15;94.30
77235;BME280;66253;50.526;14.974;2023-11-19T08:26:35;98724.48;;;3.16;94.22
77235;BME280;66253;50.526;14.974;2023-11-19T08:29:03;98723.73;;;3.18;95.06
77235;BME280;66253;50.526;14.974;2023-11-19T08:31:32;98717.89;;;3.21;94.25
77235;BME280;66253;50.526;14.974;2023-11-19T08:34:00;98729.61;;;3.23;94.03
77235;BME280;66253;50.526;14.974;2023-11-19T08:36:28;98742.57;;;3.25;93.79
77235;BME280;66253;50.526;14.974;2023-11-19T08:38:56;98738.65;;;3.26;93.72
77235;BME280;66253;50.526;14.974;2023-11-19T08:41:25;98733.50;;;3.28;93.77
77235;BME280;66253;50.526;14.974;2023-11-19T08:43:53;98724.09;;;3.32;94.08
77235;BME280;66253;50.526;14.974;2023-11-19T08:46:21;98713.36;;;3.35;93.73
77235;BME280;66253;50.526;14.974;2023-11-19T08:48:50;98716.79;;;3.38;94.15
77235;BME280;66253;50.526;14.974;2023-11-19T08:51:18;98712.42;;;3.42;94.17
77235;BME280;66253;50.526;14.974;2023-11-19T08:53:46;98709.95;;;3.45;93.93
77235;BME280;66253;50.526;14.974;2023-11-19T08:56:14;98704.63;;;3.48;94.02
77235;BME280;66253;50.526;14.974;2023-11-19T08:58:42;98702.98;;;3.52;94.07
77235;BME280;66253;50.526;14.974;2023-11-19T09:01:11;98697.95;;;3.56;93.80
77235;BME280;66253;50.526;14.974;2023-11-19T09:03:39;98698.54;;;3.58;93.83
77235;BME280;66253;50.526;14.974;2023-11-19T09:06:08;98703.55;;;3.60;94.08
77235;BME280;66253;50.526;14.974;2023-11-19T09:08:36;98701.13;;;3.61;93.68
77235;BME280;66253;50.526;14.974;2023-11-19T09:11:09;98701.23;;;3.63;93.88
77235;BME280;66253;50.526;14.974;2023-11-19T09:13:37;98696.43;;;3.65;94.03
77235;BME280;66253;50.526;14.974;2023-11-19T09:16:06;98697.87;;;3.67;93.92
77235;BME280;66253;50.526;14.974;2023-11-19T09:18:35;98694.64;;;3.67;93.71
77235;BME280;66253;50.526;14.974;2023-11-19T09:21:03;98690.67;;;3.65;93.89
77235;BME280;66253;50.526;14.974;2023-11-19T09:23:32;98691.59;;;3.63;93.84
77235;BME280;66253;50.526;14.974;2023-11-19T09:26:00;98694.50;;;3.63;93.69
77235;BME280;66253;50.526;14.974;2023-11-19T09:28:28;98698.08;;;3.62;93.81
77235;BME280;66253;50.526;14.974;2023-11-19T09:30:56;98701.63;;;3.61;94.20
77235;BME280;66253;50.526;14.974;2023-11-19T09:33:25;98697.00;;;3.63;94.11
77235;BME280;66253;50.526;14.974;2023-11-19T09:35:53;98681.73;;;3.65;94.59
77235;BME280;66253;50.526;14.974;2023-11-19T09:38:21;98682.52;;;3.66;94.55
77235;BME280;66253;50.526;14.974;2023-11-19T09:40:50;98683.71;;;3.66;94.49
77235;BME280;66253;50.526;14.974;2023-11-19T09:43:18;98683.38;;;3.66;94.31
77235;BME280;66253;50.526;14.974;2023-11-19T09:45:49;98681.31;;;3.67;94.39
77235;BME280;66253;50.526;14.974;2023-11-19T09:48:19;98676.61;;;3.66;94.06
77235;BME280;66253;50.526;14.974;2023-11-19T09:50:48;98668.48;;;3.67;94.30
77235;BME280;66253;50.526;14.974;2023-11-19T09:53:17;98671.46;;;3.68;94.51
77235;BME280;66253;50.526;14.974;2023-11-19T09:55:47;98683.37;;;3.71;94.44
77235;BME280;66253;50.526;14.974;2023-11-19T09:58:16;98687.51;;;3.73;94.30
77235;BME280;66253;50.526;14.974;2023-11-19T10:00:44;98678.39;;;3.73;94.01
77235;BME280;66253;50.526;14.974;2023-11-19T10:03:13;98666.46;;;3.72;93.81
77235;BME280;66253;50.526;14.974;2023-11-19T10:05:42;98660.05;;;3.72;94.00
77235;BME280;66253;50.526;14.974;2023-11-19T10:08:10;98662.44;;;3.75;94.08
77235;BME280;66253;50.526;14.974;2023-11-19T10:10:38;98666.34;;;3.75;93.81
77235;BME280;66253;50.526;14.974;2023-11-19T10:13:06;98666.62;;;3.76;93.88
77235;BME280;66253;50.526;14.974;2023-11-19T10:15:37;98651.41;;;3.76;93.87
77235;BME280;66253;50.526;14.974;2023-11-19T10:18:06;98645.08;;;3.79;94.17
77235;BME280;66253;50.526;14.974;2023-11-19T10:20:38;98653.27;;;3.81;93.80
77235;BME280;66253;50.526;14.974;2023-11-19T10:23:09;98661.95;;;3.84;94.06
77235;BME280;66253;50.526;14.974;2023-11-19T10:25:37;98669.34;;;3.85;93.83
77235;BME280;66253;50.526;14.974;2023-11-19T10:28:05;98672.83;;;3.87;93.88
77235;BME280;66253;50.526;14.974;2023-11-19T10:30:34;98669.09;;;3.87;93.97
77235;BME280;66253;50.526;14.974;2023-11-19T10:33:06;98672.12;;;3.87;93.60
77235;BME280;66253;50.526;14.974;2023-11-19T10:35:35;98662.98;;;3.88;93.42
77235;BME280;66253;50.526;14.974;2023-11-19T10:38:14;98666.14;;;3.89;93.56
77235;BME280;66253;50.526;14.974;2023-11-19T10:40:43;98653.83;;;3.88;93.21
77235;BME280;66253;50.526;14.974;2023-11-19T10:43:12;98647.94;;;3.88;93.23
77235;BME280;66253;50.526;14.974;2023-11-19T10:45:40;98640.92;;;3.90;93.66
77235;BME280;66253;50.526;14.974;2023-11-19T10:48:09;98637.94;;;3.93;93.73
77235;BME280;66253;50.526;14.974;2023-11-19T10:50:38;98638.40;;;3.94;93.54
77235;BME280;66253;50.526;14.974;2023-11-19T10:53:08;98636.98;;;3.96;93.83
77235;BME280;66253;50.526;14.974;2023-11-19T10:55:37;98640.77;;;3.98;93.73
77235;BME280;66253;50.526;14.974;2023-11-19T10:58:06;98636.12;;;4.01;93.53
77235;BME280;66253;50.526;14.974;2023-11-19T11:00:41;98635.68;;;4.04;93.35
77235;BME280;66253;50.526;14.974;2023-11-19T11:03:15;98626.63;;;4.06;93.60
77235;BME280;66253;50.526;14.974;2023-11-19T11:05:44;98625.39;;;4.04;92.83
77235;BME280;66253;50.526;14.974;2023-11-19T11:08:14;98624.06;;;3.98;92.92
77235;BME280;66253;50.526;14.974;2023-11-19T11:10:45;98626.27;;;3.97;93.35
77235;BME280;66253;50.526;14.974;2023-11-19T11:13:14;98619.25;;;4.00;93.70
77235;BME280;66253;50.526;14.974;2023-11-19T11:15:44;98628.48;;;4.02;93.82
77235;BME280;66253;50.526;14.974;2023-11-19T11:18:12;98635.88;;;4.03;93.27
77235;BME280;66253;50.526;14.974;2023-11-19T11:20:41;98635.02;;;4.03;93.34
77235;BME280;66253;50.526;14.974;2023-11-19T11:23:33;98624.80;;;4.06;93.37
77235;BME280;66253;50.526;14.974;2023-11-19T11:26:19;98620.73;;;4.10;93.91
77235;BME280;66253;50.526;14.974;2023-11-19T11:28:58;98626.63;;;4.15;93.75
77235;BME280;66253;50.526;14.974;2023-11-19T11:31:35;98610.46;;;4.17;93.75
77235;BME280;66253;50.526;14.974;2023-11-19T11:34:19;98609.05;;;4.19;93.63
77235;BME280;66253;50.526;14.974;2023-11-19T11:37:01;98604.21;;;4.21;93.87
77235;BME280;66253;50.526;14.974;2023-11-19T11:39:34;98598.06;;;4.24;93.42
77235;BME280;66253;50.526;14.974;2023-11-19T11:42:34;98585.75;;;4.23;93.82
77235;BME280;66253;50.526;14.974;2023-11-19T11:45:04;98591.30;;;4.23;93.88
77235;BME280;66253;50.526;14.974;2023-11-19T11:50:17;98607.36;;;4.23;93.79
77235;BME280;66253;50.526;14.974;2023-11-19T11:53:15;98617.55;;;4.22;93.89
77235;BME280;66253;50.526;14.974;2023-11-19T11:55:55;98603.08;;;4.20;93.38
77235;BME280;66253;50.526;14.974;2023-11-19T11:58:28;98591.11;;;4.16;93.19
77235;BME280;66253;50.526;14.974;2023-11-19T12:00:58;98602.91;;;4.16;93.72
77235;BME280;66253;50.526;14.974;2023-11-19T12:03:28;98593.36;;;4.18;93.80
77235;BME280;66253;50.526;14.974;2023-11-19T12:05:55;98587.55;;;4.19;93.54
77235;BME280;66253;50.526;14.974;2023-11-19T12:08:28;98594.05;;;4.22;93.61
77235;BME280;66253;50.526;14.974;2023-11-19T12:10:57;98592.16;;;4.23;93.95
77235;BME280;66253;50.526;14.974;2023-11-19T12:13:44;98597.50;;;4.25;93.59
77235;BME280;66253;50.526;14.974;2023-11-19T12:16:14;98593.83;;;4.28;93.57
77235;BME280;66253;50.526;14.974;2023-11-19T12:18:42;98580.44;;;4.29;93.23
77235;BME280;66253;50.526;14.974;2023-11-19T12:21:12;98569.50;;;4.31;93.47
77235;BME280;66253;50.526;14.974;2023-11-19T12:23:55;98578.52;;;4.34;93.44
77235;BME280;66253;50.526;14.974;2023-11-19T12:26:39;98581.21;;;4.35;93.59
77235;BME280;66253;50.526;14.974;2023-11-19T12:29:08;98580.75;;;4.38;94.08
77235;BME280;66253;50.526;14.974;2023-11-19T12:31:36;98577.11;;;4.39;93.90
77235;BME280;66253;50.526;14.974;2023-11-19T12:34:11;98578.25;;;4.41;93.85
77235;BME280;66253;50.526;14.974;2023-11-19T12:36:39;98576.05;;;4.45;93.40
77235;BME280;66253;50.526;14.974;2023-11-19T12:39:08;98574.25;;;4.48;93.64
77235;BME280;66253;50.526;14.974;2023-11-19T12:41:53;98575.67;;;4.50;93.83
77235;BME280;66253;50.526;14.974;2023-11-19T12:44:23;98569.11;;;4.49;93.64
77235;BME280;66253;50.526;14.974;2023-11-19T12:47:05;98566.34;;;4.51;93.59
77235;BME280;66253;50.526;14.974;2023-11-19T12:49:34;98561.35;;;4.53;93.88
77235;BME280;66253;50.526;14.974;2023-11-19T12:52:10;98556.00;;;4.56;93.92
77235;BME280;66253;50.526;14.974;2023-11-19T12:54:39;98562.04;;;4.57;93.52
77235;BME280;66253;50.526;14.974;2023-11-19T12:57:07;98553.69;;;4.58;93.68
77235;BME280;66253;50.526;14.974;2023-11-19T12:59:35;98551.90;;;4.61;94.07
77235;BME280;66253;50.526;14.974;2023-11-19T13:02:04;98530.95;;;4.60;93.58
77235;BME280;66253;50.526;14.974;2023-11-19T13:04:32;98523.86;;;4.60;93.82
77235;BME280;66253;50.526;14.974;2023-11-19T13:07:01;98508.95;;;4.64;93.87
77235;BME280;66253;50.526;14.974;2023-11-19T13:09:30;98506.88;;;4.69;94.22
77235;BME280;66253;50.526;14.974;2023-11-19T13:11:58;98496.35;;;4.74;94.08
77235;BME280;66253;50.526;14.974;2023-11-19T13:14:37;98485.17;;;4.78;93.96